createdAt,value
2023-04-07T00:00:07.149Z,21.3
2023-04-07T00:05:06.373Z,22.6
2023-04-07T00:10:06.585Z,21
2023-04-07T00:15:06.639Z,20.9
2023-04-07T00:20:06.885Z,21.9
2023-04-07T00:25:07.124Z,22.4
2023-04-07T00:30:06.313Z,21.9
2023-04-07T00:35:06.423Z,20.5
2023-04-07T00:40:06.547Z,30.9
2023-04-07T00:45:06.675Z,32.1
2023-04-07T00:50:06.839Z,30.9
2023-04-07T00:55:06.951Z,31.6
2023-04-07T01:00:07.071Z,29.6
2023-04-07T01:05:06.789Z,31.5
2023-04-07T01:10:07.235Z,28.7
2023-04-07T01:15:06.586Z,23.1
2023-04-07T01:20:06.798Z,19.4
2023-04-07T01:25:07.111Z,18.7
2023-04-07T01:30:06.926Z,21
2023-04-07T01:35:07.085Z,18.3
2023-04-07T01:40:07.065Z,18
2023-04-07T01:45:07.171Z,20
2023-04-07T01:50:06.384Z,17.3
2023-04-07T01:55:06.428Z,20.8
2023-04-07T02:00:06.844Z,17.3
2023-04-07T02:05:06.726Z,22.1
2023-04-07T02:10:07.078Z,19.1
2023-04-07T02:15:06.325Z,16.8
2023-04-07T02:20:06.580Z,16.6
2023-04-07T02:25:06.783Z,16.3
2023-04-07T02:30:06.912Z,18
2023-04-07T02:35:07.137Z,20.1
2023-04-07T02:40:06.504Z,20.6
2023-04-07T02:45:06.532Z,18.3
2023-04-07T02:50:06.697Z,21.4
2023-04-07T02:55:06.920Z,23.5
2023-04-07T03:00:07.146Z,20.9
2023-04-07T03:05:06.359Z,19.2
2023-04-07T03:10:06.462Z,19.1
2023-04-07T03:15:06.964Z,17.5
2023-04-07T03:20:07.054Z,17.6
2023-04-07T03:25:07.083Z,15.5
2023-04-07T03:30:07.159Z,16.5
2023-04-07T03:35:06.333Z,17.9
2023-04-07T03:40:06.607Z,21.8
2023-04-07T03:45:06.598Z,19
2023-04-07T03:50:06.808Z,20.8
2023-04-07T03:55:06.945Z,18.3
2023-04-07T04:00:06.510Z,16.1
2023-04-07T04:05:06.695Z,12.4
2023-04-07T04:10:06.969Z,15.1
2023-04-07T04:15:07.154Z,14.7
2023-04-07T04:20:06.299Z,16.8
2023-04-07T04:25:06.413Z,17.1
2023-04-07T04:30:06.649Z,20.3
2023-04-07T04:35:07.052Z,18
2023-04-07T04:40:07.209Z,19.5
2023-04-07T04:45:06.323Z,20.7
2023-04-07T04:50:06.420Z,19.6
2023-04-07T04:55:06.772Z,21.3
2023-04-07T05:00:07.092Z,24.5
2023-04-07T05:05:06.415Z,29.3
2023-04-07T05:10:06.653Z,25.6
2023-04-07T05:15:06.312Z,23.7
2023-04-07T05:20:06.550Z,27.1
2023-04-07T05:25:06.880Z,29.3
2023-04-07T05:30:06.831Z,29.8
2023-04-07T05:35:06.872Z,28.3
2023-04-07T05:40:07.179Z,27.7
2023-04-07T05:45:06.844Z,29
2023-04-07T05:50:07.005Z,32.2
2023-04-07T05:55:07.170Z,24.4
2023-04-07T06:00:06.430Z,21.9
2023-04-07T06:05:07.092Z,18.8
2023-04-07T06:10:06.244Z,20.9
2023-04-07T06:15:06.334Z,18.8
2023-04-07T06:20:06.553Z,20.4
2023-04-07T06:25:06.696Z,25.5
2023-04-07T06:30:06.876Z,24.8
2023-04-07T06:35:07.073Z,23.7
2023-04-07T06:40:07.189Z,26.8
2023-04-07T06:45:06.302Z,29.3
2023-04-07T06:50:06.392Z,28.2
2023-04-07T06:55:06.478Z,27.9
2023-04-07T07:00:06.787Z,25.8
2023-04-07T07:05:06.748Z,24
2023-04-07T07:10:07.013Z,20.4
2023-04-07T07:15:07.143Z,23.2
2023-04-07T07:20:06.326Z,24
2023-04-07T07:25:06.509Z,21.8
2023-04-07T07:30:06.661Z,21.2
2023-04-07T07:35:06.857Z,17.2
2023-04-07T07:40:07.078Z,18.3
2023-04-07T07:45:07.191Z,18
2023-04-07T07:50:06.372Z,23
2023-04-07T07:55:06.534Z,21.8
2023-04-07T08:00:06.753Z,27.8
2023-04-07T08:05:07.048Z,34.4
2023-04-07T08:10:07.201Z,32
2023-04-07T08:15:06.307Z,32.4
2023-04-07T08:20:06.671Z,29.4
2023-04-07T08:25:06.593Z,32.1
2023-04-07T08:30:06.821Z,32.4
2023-04-07T08:35:06.914Z,34
2023-04-07T08:40:07.120Z,34.5
2023-04-07T08:45:07.169Z,36.3
2023-04-07T08:50:06.394Z,24.3
2023-04-07T08:55:06.574Z,26
2023-04-07T09:00:06.766Z,23.4
2023-04-07T09:05:06.772Z,24.6
2023-04-07T09:10:07.231Z,24.6
2023-04-07T09:15:06.502Z,17.8
2023-04-07T09:20:06.912Z,22.3
2023-04-07T09:25:06.379Z,20.9
2023-04-07T09:30:06.807Z,19.1
2023-04-07T09:35:06.974Z,22.2
2023-04-07T09:40:06.234Z,16.7
2023-04-07T09:45:06.399Z,20.1
2023-04-07T09:50:06.445Z,15.8
2023-04-07T09:55:06.696Z,18.8
2023-04-07T10:00:07.011Z,21.3
2023-04-07T10:05:06.220Z,19.3
2023-04-07T10:10:06.588Z,12.9
2023-04-07T10:15:06.686Z,15.6
2023-04-07T10:20:06.360Z,16.3
2023-04-07T10:25:06.570Z,15.2
2023-04-07T10:30:06.699Z,17.5
2023-04-07T10:35:07.080Z,12.6
2023-04-07T10:40:06.488Z,15.4
2023-04-07T10:45:06.782Z,17.9
2023-04-07T10:50:06.790Z,17.1
2023-04-07T10:55:06.787Z,18
2023-04-07T11:00:06.999Z,17.6
2023-04-07T11:05:06.921Z,15.3
2023-04-07T11:10:07.076Z,18
2023-04-07T11:15:07.229Z,21.9
2023-04-07T11:20:06.460Z,20.1
2023-04-07T11:25:07.130Z,18.4
2023-04-07T11:30:06.510Z,10.9
2023-04-07T11:35:06.917Z,21.8
2023-04-07T11:40:07.078Z,21.7
2023-04-07T11:45:06.233Z,31.9
2023-04-07T11:50:06.365Z,17.3
2023-04-07T11:55:07.004Z,14.6
2023-04-07T12:00:06.359Z,16.1
2023-04-07T12:05:07.061Z,19.2
2023-04-07T12:10:07.120Z,19.9
2023-04-07T12:15:06.328Z,24.4
2023-04-07T12:20:06.462Z,18
2023-04-07T12:25:06.637Z,21.8
2023-04-07T12:30:06.800Z,17.7
2023-04-07T12:35:06.936Z,24.4
2023-04-07T12:40:07.139Z,19.3
2023-04-07T12:45:06.355Z,22.1
2023-04-07T12:50:06.484Z,21.3
2023-04-07T12:55:06.549Z,21.8
2023-04-07T13:00:06.860Z,26.3
2023-04-07T13:05:06.795Z,24.7
2023-04-07T13:10:06.961Z,28.3
2023-04-07T13:15:06.243Z,22.7
2023-04-07T13:20:06.455Z,21.3
2023-04-07T13:25:07.236Z,23.4
2023-04-07T13:30:06.521Z,24
2023-04-07T13:35:06.668Z,27.6
2023-04-07T13:40:06.844Z,27.1
2023-04-07T13:45:07.026Z,23.8
2023-04-07T13:50:07.129Z,24.8
2023-04-07T13:55:06.299Z,23.3
2023-04-07T14:00:06.495Z,16.6
2023-04-07T14:05:06.721Z,21.9
2023-04-07T14:10:06.815Z,18.8
2023-04-07T14:15:06.850Z,13.7
2023-04-07T14:20:06.413Z,14.9
2023-04-07T14:25:06.505Z,16.1
2023-04-07T14:30:06.629Z,15.1
2023-04-07T14:35:06.925Z,28.1
2023-04-07T14:40:07.019Z,18.5
2023-04-07T14:45:07.121Z,16.1
2023-04-07T14:50:06.742Z,18.7
2023-04-07T14:55:06.920Z,14.1
2023-04-07T15:00:07.078Z,15.9
2023-04-07T15:05:06.892Z,21.6
2023-04-07T15:10:07.189Z,20.5
2023-04-07T15:15:06.870Z,16.2
2023-04-07T15:20:07.243Z,15.7
2023-04-07T15:25:06.392Z,18.5
2023-04-07T15:30:06.440Z,25.1
2023-04-07T15:35:06.402Z,17.6
2023-04-07T15:40:06.600Z,14.7
2023-04-07T15:45:06.944Z,14.4
2023-04-07T15:50:07.036Z,16.1
2023-04-07T15:55:07.248Z,15.4
2023-04-07T16:00:06.387Z,16.1
2023-04-07T16:05:06.760Z,17
2023-04-07T16:10:06.996Z,17
2023-04-07T16:15:07.151Z,19.9
2023-04-07T16:20:06.336Z,17.4
2023-04-07T16:25:06.511Z,17.1
2023-04-07T16:30:06.953Z,17.8
2023-04-07T16:35:07.047Z,19.5
2023-04-07T16:40:07.244Z,14.4
2023-04-07T16:45:06.353Z,16.9
2023-04-07T16:50:06.419Z,15.9
2023-04-07T16:55:06.769Z,18.3
2023-04-07T17:00:06.980Z,21.2
2023-04-07T17:05:06.314Z,24.5
2023-04-07T17:10:06.426Z,24.6
2023-04-07T17:15:06.615Z,17.2
2023-04-07T17:20:06.771Z,12.2
2023-04-07T17:25:06.921Z,9.7
2023-04-07T17:30:07.097Z,15.6
2023-04-07T17:35:06.302Z,11.3
2023-04-07T17:40:06.484Z,19.2
2023-04-07T17:45:06.677Z,13.1
2023-04-07T17:50:06.970Z,12.1
2023-04-07T17:55:06.950Z,22.1
2023-04-07T18:00:07.076Z,21.9
2023-04-07T18:05:06.514Z,17.3
2023-04-07T18:10:06.694Z,18.3
2023-04-07T18:15:06.921Z,16.6
2023-04-07T18:20:07.115Z,21.8
2023-04-07T18:25:07.203Z,32.7
2023-04-07T18:30:06.299Z,29.9
2023-04-07T18:35:06.373Z,30.8
2023-04-07T18:40:06.600Z,29.2
2023-04-07T18:45:06.822Z,18.8
2023-04-07T18:50:06.924Z,21.7
2023-04-07T18:55:07.032Z,20.5
2023-04-07T19:00:07.209Z,18.1
2023-04-07T19:05:06.388Z,17.4
2023-04-07T19:10:07.254Z,21.3
2023-04-07T19:15:06.332Z,20.6
2023-04-07T19:20:06.614Z,19.3
2023-04-07T19:25:06.707Z,16.9
2023-04-07T19:30:06.991Z,15.3
2023-04-07T19:35:07.022Z,25.6
2023-04-07T19:40:07.208Z,13.4
2023-04-07T19:45:06.435Z,11.3
2023-04-07T19:50:06.649Z,12.3
2023-04-07T19:55:06.945Z,10.3
2023-04-07T20:00:06.329Z,17.5
2023-04-07T20:05:06.780Z,18.9
2023-04-07T20:10:06.927Z,18.4
2023-04-07T20:15:06.786Z,14.8
2023-04-07T20:20:07.026Z,14.6
2023-04-07T20:25:07.066Z,17
2023-04-07T20:30:07.201Z,20.1
2023-04-07T20:35:06.437Z,17.2
2023-04-07T20:40:06.595Z,15.5
2023-04-07T20:45:06.758Z,15.7
2023-04-07T20:50:06.950Z,18.6
2023-04-07T20:55:07.126Z,25.8
2023-04-07T21:00:06.394Z,22.4
2023-04-07T21:05:06.492Z,15.9
2023-04-07T21:10:06.695Z,12.4
2023-04-07T21:15:06.916Z,11.3
2023-04-07T21:20:07.170Z,12.7
2023-04-07T21:25:06.327Z,11.2
2023-04-07T21:30:06.456Z,11.4
2023-04-07T21:35:06.699Z,8.6
2023-04-07T21:40:06.786Z,11.7
2023-04-07T21:45:07.100Z,13.4
2023-04-07T21:50:06.280Z,12.7
2023-04-07T21:55:06.383Z,10.8
2023-04-07T22:00:06.752Z,13
2023-04-07T22:05:07.032Z,11
2023-04-07T22:10:07.166Z,12.9
2023-04-07T22:15:06.492Z,11.9
2023-04-07T22:20:06.687Z,11.7
2023-04-07T22:25:06.868Z,13.3
2023-04-07T22:30:07.020Z,12.8
2023-04-07T22:35:06.252Z,20.7
2023-04-07T22:40:06.509Z,23
2023-04-07T22:45:06.751Z,23.6
2023-04-07T22:50:06.751Z,19.7
2023-04-07T22:55:07.086Z,19.4
2023-04-07T23:00:07.265Z,18.6
2023-04-07T23:05:06.834Z,17.5
2023-04-07T23:10:07.108Z,17.4
2023-04-07T23:15:06.534Z,15.5
2023-04-07T23:20:06.830Z,33.1
2023-04-07T23:25:07.108Z,45.3
2023-04-07T23:30:07.158Z,40.7
2023-04-07T23:35:06.314Z,31
2023-04-07T23:40:06.441Z,26
2023-04-07T23:45:06.904Z,20.9
2023-04-07T23:50:07.133Z,23.7
2023-04-07T23:55:06.362Z,19.9
